nws-alerts: Checking more than four warning/county codes can delay the loading of your pages. You should use a cron job to get the data.
EllijayWeather Station Historical Data
Daily Summary for December 21, 2018 Units:  Both    English   Metric
Daily Weekly Monthly Yearly Custom
  High: Low: Average:
Temperature: 47.8 °F /  8.8 °C 37.6 °F /  3.1 °C 42.9 °F /  6.1 °C
Dew Point: 20.3 °F /  -6.5 °C 15.1 °F /  -9.4 °C 17.4 °F /  -8.1 °C
Humidity: 42% 32% 36%
Wind Speed: 4mph /  6.4km/h - 0.3mph /  0.5km/h
Wind Gust: 15mph /  24.1km/h - -
Wind- - West
Pressure: 29.90 in /  1012.4 hPa 29.28 in /  991.4 hPa -
Precipitation: 0.6 in /  15.24 mm    
Historical Graphs
 
 
Tabular Data for December 21, 2018
Time Temperature Dew Point Pressure Wind Wind Speed Wind Gust Humidity Rainfall Rate (Hourly) solar
00:04 47.8 °F /  8.8 °C 19.4 °F /  -7 °C 29.41in /  995.8hPa Calm     32% 0in /  0mm meteobridge W/m2
00:09 47.8 °F /  8.8 °C 19.4 °F /  -7 °C 29.40in /  995.5hPa North 0.9mph /  1.4km/h 1mph /  1.6km/h 32% 0in /  0mm meteobridge W/m2
00:14 47.8 °F /  8.8 °C 19.4 °F /  -7 °C 29.40in /  995.5hPa North 0.9mph /  1.4km/h 1mph /  1.6km/h 32% 0in /  0mm meteobridge W/m2
00:19 47.8 °F /  8.8 °C 19.4 °F /  -7 °C 29.40in /  995.5hPa Calm     32% 0in /  0mm meteobridge W/m2
00:24 47.8 °F /  8.8 °C 19.4 °F /  -7 °C 29.40in /  995.5hPa Calm     32% 0in /  0mm meteobridge W/m2
00:29 47.7 °F /  8.7 °C 19.2 °F /  -7.1 °C 29.39in /  995.1hPa Calm     32% 0in /  0mm meteobridge W/m2
00:34 47.7 °F /  8.7 °C 19.2 °F /  -7.1 °C 29.39in /  995.1hPa Calm     32% 0in /  0mm meteobridge W/m2
00:39 47.7 °F /  8.7 °C 19.2 °F /  -7.1 °C 29.39in /  995.1hPa Calm     32% 0in /  0mm meteobridge W/m2
00:44 47.7 °F /  8.7 °C 19.2 °F /  -7.1 °C 29.39in /  995.1hPa Calm     32% 0.01in /  0.25mm meteobridge W/m2
00:49 47.7 °F /  8.7 °C 19.2 °F /  -7.1 °C 29.38in /  994.8hPa Calm     32% 0.01in /  0.25mm meteobridge W/m2
00:54 47.7 °F /  8.7 °C 19.2 °F /  -7.1 °C 29.38in /  994.8hPa Calm     32% 0.01in /  0.25mm meteobridge W/m2
00:59 47.5 °F /  8.6 °C 19 °F /  -7.2 °C 29.38in /  994.8hPa Calm     32% 0.01in /  0.25mm meteobridge W/m2
01:04 47.5 °F /  8.6 °C 19 °F /  -7.2 °C 29.37in /  994.5hPa Calm     32% 0.01in /  0.25mm meteobridge W/m2
01:09 47.5 °F /  8.6 °C 19 °F /  -7.2 °C 29.37in /  994.5hPa Calm     32% 0.01in /  0.25mm meteobridge W/m2
01:14 47.5 °F /  8.6 °C 19 °F /  -7.2 °C 29.37in /  994.5hPa Calm     32% 0.01in /  0.25mm meteobridge W/m2
01:19 47.5 °F /  8.6 °C 19 °F /  -7.2 °C 29.37in /  994.5hPa Calm     32% 0.01in /  0.25mm meteobridge W/m2
01:24 47.5 °F /  8.6 °C 19 °F /  -7.2 °C 29.37in /  994.5hPa Calm     32% 0.02in /  0.51mm meteobridge W/m2
01:29 47.5 °F /  8.6 °C 19 °F /  -7.2 °C 29.36in /  994.1hPa Calm     32% 0.02in /  0.51mm meteobridge W/m2
01:34 47.5 °F /  8.6 °C 19 °F /  -7.2 °C 29.36in /  994.1hPa Calm     32% 0.04in /  1.02mm meteobridge W/m2
01:39 47.5 °F /  8.6 °C 19 °F /  -7.2 °C 29.36in /  994.1hPa Calm     32% 0.05in /  1.27mm meteobridge W/m2
01:44 47.5 °F /  8.6 °C 19 °F /  -7.2 °C 29.36in /  994.1hPa Calm     32% 0.05in /  1.27mm meteobridge W/m2
01:49 47.5 °F /  8.6 °C 19 °F /  -7.2 °C 29.36in /  994.1hPa Calm     32% 0.06in /  1.52mm meteobridge W/m2
01:54 47.5 °F /  8.6 °C 19 °F /  -7.2 °C 29.35in /  993.8hPa Calm     32% 0.07in /  1.78mm meteobridge W/m2
01:59 47.5 °F /  8.6 °C 19 °F /  -7.2 °C 29.35in /  993.8hPa Calm     32% 0.09in /  2.29mm meteobridge W/m2
02:04 47.5 °F /  8.6 °C 19 °F /  -7.2 °C 29.35in /  993.8hPa Calm     32% 0.1in /  2.54mm meteobridge W/m2
02:09 47.5 °F /  8.6 °C 19 °F /  -7.2 °C 29.35in /  993.8hPa Calm     32% 0.11in /  2.79mm meteobridge W/m2
02:14 47.5 °F /  8.6 °C 19 °F /  -7.2 °C 29.34in /  993.5hPa Calm     32% 0.11in /  2.79mm meteobridge W/m2
02:19 47.5 °F /  8.6 °C 19 °F /  -7.2 °C 29.34in /  993.5hPa Calm     32% 0.11in /  2.79mm meteobridge W/m2
02:24 47.5 °F /  8.6 °C 19 °F /  -7.2 °C 29.34in /  993.5hPa Calm     32% 0.11in /  2.79mm meteobridge W/m2
02:29 47.5 °F /  8.6 °C 19 °F /  -7.2 °C 29.34in /  993.5hPa Calm     32% 0.1in /  2.54mm meteobridge W/m2
02:34 47.5 °F /  8.6 °C 19 °F /  -7.2 °C 29.34in /  993.5hPa Calm     32% 0.1in /  2.54mm meteobridge W/m2
02:39 47.5 °F /  8.6 °C 19 °F /  -7.2 °C 29.33in /  993.1hPa Calm     32% 0.1in /  2.54mm meteobridge W/m2
02:44 47.3 °F /  8.5 °C 18.9 °F /  -7.3 °C 29.33in /  993.1hPa Calm     32% 0.09in /  2.29mm meteobridge W/m2
02:49 47.3 °F /  8.5 °C 18.9 °F /  -7.3 °C 29.33in /  993.1hPa Calm     32% 0.09in /  2.29mm meteobridge W/m2
02:54 47.1 °F /  8.4 °C 18.7 °F /  -7.4 °C 29.32in /  992.8hPa Calm     32% 0.07in /  1.78mm meteobridge W/m2
02:59 47.1 °F /  8.4 °C 18.7 °F /  -7.4 °C 29.32in /  992.8hPa NNW 0.9mph /  1.4km/h 1mph /  1.6km/h 32% 0.06in /  1.52mm meteobridge W/m2
03:04 47.1 °F /  8.4 °C 18.7 °F /  -7.4 °C 29.32in /  992.8hPa Calm     32% 0.05in /  1.27mm meteobridge W/m2
03:09 47.1 °F /  8.4 °C 18.7 °F /  -7.4 °C 29.32in /  992.8hPa Calm     32% 0.04in /  1.02mm meteobridge W/m2
03:14 47.1 °F /  8.4 °C 18.7 °F /  -7.4 °C 29.32in /  992.8hPa Calm     32% 0.04in /  1.02mm meteobridge W/m2
03:19 47.1 °F /  8.4 °C 18.7 °F /  -7.4 °C 29.32in /  992.8hPa Calm     32% 0.05in /  1.27mm meteobridge W/m2
03:24 46.9 °F /  8.3 °C 18.7 °F /  -7.4 °C 29.32in /  992.8hPa Calm     32% 0.04in /  1.02mm meteobridge W/m2
03:29 46.9 °F /  8.3 °C 18.7 °F /  -7.4 °C 29.32in /  992.8hPa Calm     32% 0.05in /  1.27mm meteobridge W/m2
03:34 46.9 °F /  8.3 °C 18.7 °F /  -7.4 °C 29.32in /  992.8hPa Calm     32% 0.04in /  1.02mm meteobridge W/m2
03:39 46.9 °F /  8.3 °C 18.7 °F /  -7.4 °C 29.32in /  992.8hPa Calm     32% 0.04in /  1.02mm meteobridge W/m2
03:44 46.9 °F /  8.3 °C 18.7 °F /  -7.4 °C 29.32in /  992.8hPa Calm     32% 0.05in /  1.27mm meteobridge W/m2
03:49 46.9 °F /  8.3 °C 18.7 °F /  -7.4 °C 29.32in /  992.8hPa Calm     32% 0.06in /  1.52mm meteobridge W/m2
03:54 46.9 °F /  8.3 °C 18.7 °F /  -7.4 °C 29.32in /  992.8hPa Calm     32% 0.07in /  1.78mm meteobridge W/m2
03:59 46.8 °F /  8.2 °C 18.5 °F /  -7.5 °C 29.32in /  992.8hPa Calm     32% 0.08in /  2.03mm meteobridge W/m2
04:04 46.8 °F /  8.2 °C 18.5 °F /  -7.5 °C 29.32in /  992.8hPa Calm   2mph /  3.2km/h 32% 0.1in /  2.54mm meteobridge W/m2
04:09 46.6 °F /  8.1 °C 18.3 °F /  -7.6 °C 29.32in /  992.8hPa Calm     32% 0.12in /  3.05mm meteobridge W/m2
04:14 46.4 °F /  8 °C 18.1 °F /  -7.7 °C 29.32in /  992.8hPa Calm     32% 0.14in /  3.56mm meteobridge W/m2
04:19 46.4 °F /  8 °C 18.1 °F /  -7.7 °C 29.32in /  992.8hPa WNW 0.9mph /  1.4km/h 1mph /  1.6km/h 32% 0.14in /  3.56mm meteobridge W/m2
04:24 46.2 °F /  7.9 °C 18 °F /  -7.8 °C 29.32in /  992.8hPa Calm     32% 0.16in /  4.06mm meteobridge W/m2
04:29 46.2 °F /  7.9 °C 18 °F /  -7.8 °C 29.32in /  992.8hPa Calm     32% 0.17in /  4.32mm meteobridge W/m2
04:34 46 °F /  7.8 °C 17.8 °F /  -7.9 °C 29.32in /  992.8hPa Calm     32% 0.18in /  4.57mm meteobridge W/m2
04:39 46 °F /  7.8 °C 17.8 °F /  -7.9 °C 29.31in /  992.4hPa North 2mph /  3.2km/h 2mph /  3.2km/h 32% 0.18in /  4.57mm meteobridge W/m2
04:44 46 °F /  7.8 °C 17.8 °F /  -7.9 °C 29.31in /  992.4hPa Calm   3mph /  4.8km/h 32% 0.18in /  4.57mm meteobridge W/m2
04:49 46 °F /  7.8 °C 17.8 °F /  -7.9 °C 29.30in /  992.1hPa Calm     32% 0.17in /  4.32mm meteobridge W/m2
04:54 46 °F /  7.8 °C 17.8 °F /  -7.9 °C 29.30in /  992.1hPa Calm     32% 0.17in /  4.32mm meteobridge W/m2
04:59 46 °F /  7.8 °C 17.8 °F /  -7.9 °C 29.30in /  992.1hPa Calm     32% 0.17in /  4.32mm meteobridge W/m2
05:04 46 °F /  7.8 °C 17.8 °F /  -7.9 °C 29.30in /  992.1hPa Calm     32% 0.15in /  3.81mm meteobridge W/m2
05:09 45.9 °F /  7.7 °C 17.6 °F /  -8 °C 29.30in /  992.1hPa Calm     32% 0.14in /  3.56mm meteobridge W/m2
05:14 46 °F /  7.8 °C 17.8 °F /  -7.9 °C 29.30in /  992.1hPa Calm     32% 0.12in /  3.05mm meteobridge W/m2
05:19 46 °F /  7.8 °C 17.8 °F /  -7.9 °C 29.29in /  991.8hPa Calm     32% 0.11in /  2.79mm meteobridge W/m2
05:24 46 °F /  7.8 °C 17.8 °F /  -7.9 °C 29.29in /  991.8hPa Calm     32% 0.09in /  2.29mm meteobridge W/m2
05:29 45.9 °F /  7.7 °C 17.6 °F /  -8 °C 29.29in /  991.8hPa Calm     32% 0.07in /  1.78mm meteobridge W/m2
05:34 45.9 °F /  7.7 °C 17.6 °F /  -8 °C 29.28in /  991.4hPa Calm     32% 0.07in /  1.78mm meteobridge W/m2
05:39 45.9 °F /  7.7 °C 17.6 °F /  -8 °C 29.29in /  991.8hPa NNW 0.9mph /  1.4km/h 1mph /  1.6km/h 32% 0.06in /  1.52mm meteobridge W/m2
05:44 45.9 °F /  7.7 °C 17.6 °F /  -8 °C 29.28in /  991.4hPa Calm   1mph /  1.6km/h 32% 0.05in /  1.27mm meteobridge W/m2
05:49 45.7 °F /  7.6 °C 17.4 °F /  -8.1 °C 29.28in /  991.4hPa Calm     32% 0.04in /  1.02mm meteobridge W/m2
05:54 45.7 °F /  7.6 °C 17.4 °F /  -8.1 °C 29.28in /  991.4hPa Calm     32% 0.03in /  0.76mm meteobridge W/m2
05:59 45.7 °F /  7.6 °C 17.4 °F /  -8.1 °C 29.29in /  991.8hPa Calm     32% 0.03in /  0.76mm meteobridge W/m2
06:04 45.7 °F /  7.6 °C 17.4 °F /  -8.1 °C 29.29in /  991.8hPa Calm   2mph /  3.2km/h 32% 0.02in /  0.51mm meteobridge W/m2
06:09 45.5 °F /  7.5 °C 17.4 °F /  -8.1 °C 29.29in /  991.8hPa Calm     32% 0.01in /  0.25mm meteobridge W/m2
06:14 45.5 °F /  7.5 °C 17.4 °F /  -8.1 °C 29.29in /  991.8hPa Calm     32% 0.02in /  0.51mm meteobridge W/m2
06:19 45.5 °F /  7.5 °C 17.4 °F /  -8.1 °C 29.29in /  991.8hPa Calm     32% 0.02in /  0.51mm meteobridge W/m2
06:24 45.3 °F /  7.4 °C 17.2 °F /  -8.2 °C 29.29in /  991.8hPa Calm     32% 0.02in /  0.51mm meteobridge W/m2
06:29 45.3 °F /  7.4 °C 17.2 °F /  -8.2 °C 29.29in /  991.8hPa Calm     32% 0.02in /  0.51mm meteobridge W/m2
06:34 45.3 °F /  7.4 °C 17.2 °F /  -8.2 °C 29.29in /  991.8hPa Calm   1mph /  1.6km/h 32% 0.01in /  0.25mm meteobridge W/m2
06:39 45.3 °F /  7.4 °C 17.2 °F /  -8.2 °C 29.29in /  991.8hPa Calm   1mph /  1.6km/h 32% 0.01in /  0.25mm meteobridge W/m2
06:44 45.1 °F /  7.3 °C 17.1 °F /  -8.3 °C 29.30in /  992.1hPa Calm     32% 0.01in /  0.25mm meteobridge W/m2
06:49 45.1 °F /  7.3 °C 17.1 °F /  -8.3 °C 29.30in /  992.1hPa Calm     32% 0.01in /  0.25mm meteobridge W/m2
06:54 45.1 °F /  7.3 °C 17.1 °F /  -8.3 °C 29.30in /  992.1hPa Calm   1mph /  1.6km/h 32% 0.01in /  0.25mm meteobridge W/m2
06:59 45.1 °F /  7.3 °C 17.1 °F /  -8.3 °C 29.30in /  992.1hPa Calm   1mph /  1.6km/h 32% 0.01in /  0.25mm meteobridge W/m2
07:04 45.1 °F /  7.3 °C 17.1 °F /  -8.3 °C 29.30in /  992.1hPa NW 0.9mph /  1.4km/h 1mph /  1.6km/h 32% 0.01in /  0.25mm meteobridge W/m2
07:09 45.1 °F /  7.3 °C 17.1 °F /  -8.3 °C 29.30in /  992.1hPa Calm     32% 0.01in /  0.25mm meteobridge W/m2
07:14 45 °F /  7.2 °C 16.9 °F /  -8.4 °C 29.30in /  992.1hPa NW 2mph /  3.2km/h 2mph /  3.2km/h 32% 0in /  0mm meteobridge W/m2
07:19 45 °F /  7.2 °C 16.9 °F /  -8.4 °C 29.30in /  992.1hPa Calm   2mph /  3.2km/h 32% 0in /  0mm meteobridge W/m2
07:24 45 °F /  7.2 °C 16.9 °F /  -8.4 °C 29.31in /  992.4hPa Calm   2mph /  3.2km/h 32% 0in /  0mm meteobridge W/m2
07:29 45 °F /  7.2 °C 16.9 °F /  -8.4 °C 29.31in /  992.4hPa Calm     32% 0.01in /  0.25mm meteobridge W/m2
07:34 44.8 °F /  7.1 °C 16.7 °F /  -8.5 °C 29.31in /  992.4hPa Calm     32% 0.01in /  0.25mm meteobridge W/m2
07:39 44.8 °F /  7.1 °C 16.7 °F /  -8.5 °C 29.31in /  992.4hPa Calm     32% 0.01in /  0.25mm meteobridge W/m2
07:44 44.8 °F /  7.1 °C 16.7 °F /  -8.5 °C 29.31in /  992.4hPa Calm   4mph /  6.4km/h 32% 0.02in /  0.51mm meteobridge W/m2
07:49 44.8 °F /  7.1 °C 16.7 °F /  -8.5 °C 29.32in /  992.8hPa Calm   1mph /  1.6km/h 32% 0.02in /  0.51mm meteobridge W/m2
07:54 44.6 °F /  7 °C 16.5 °F /  -8.6 °C 29.32in /  992.8hPa Calm     32% 0.02in /  0.51mm meteobridge W/m2
07:59 44.6 °F /  7 °C 16.5 °F /  -8.6 °C 29.32in /  992.8hPa Calm     32% 0.03in /  0.76mm meteobridge W/m2
08:04 44.4 °F /  6.9 °C 17.1 °F /  -8.3 °C 29.32in /  992.8hPa NW 2mph /  3.2km/h 2mph /  3.2km/h 33% 0.03in /  0.76mm meteobridge W/m2
08:09 44.4 °F /  6.9 °C 17.1 °F /  -8.3 °C 29.32in /  992.8hPa Calm   4mph /  6.4km/h 33% 0.03in /  0.76mm meteobridge W/m2
08:14 44.4 °F /  6.9 °C 17.1 °F /  -8.3 °C 29.32in /  992.8hPa Calm     33% 0.04in /  1.02mm meteobridge W/m2
08:19 44.4 °F /  6.9 °C 17.1 °F /  -8.3 °C 29.33in /  993.1hPa Calm     33% 0.04in /  1.02mm meteobridge W/m2
08:24 44.4 °F /  6.9 °C 17.1 °F /  -8.3 °C 29.33in /  993.1hPa Calm   1mph /  1.6km/h 33% 0.04in /  1.02mm meteobridge W/m2
08:29 44.2 °F /  6.8 °C 16.9 °F /  -8.4 °C 29.34in /  993.5hPa Calm   2mph /  3.2km/h 33% 0.03in /  0.76mm meteobridge W/m2
08:34 44.2 °F /  6.8 °C 16.9 °F /  -8.4 °C 29.34in /  993.5hPa Calm   4mph /  6.4km/h 33% 0.03in /  0.76mm meteobridge W/m2
08:39 44.2 °F /  6.8 °C 16.9 °F /  -8.4 °C 29.34in /  993.5hPa Calm   4mph /  6.4km/h 33% 0.03in /  0.76mm meteobridge W/m2
08:44 44.2 °F /  6.8 °C 16.9 °F /  -8.4 °C 29.34in /  993.5hPa Calm     33% 0.03in /  0.76mm meteobridge W/m2
08:49 44.2 °F /  6.8 °C 16.9 °F /  -8.4 °C 29.34in /  993.5hPa Calm     33% 0.03in /  0.76mm meteobridge W/m2
08:54 44.2 °F /  6.8 °C 16.9 °F /  -8.4 °C 29.35in /  993.8hPa Calm     33% 0.04in /  1.02mm meteobridge W/m2
08:59 44.2 °F /  6.8 °C 16.9 °F /  -8.4 °C 29.35in /  993.8hPa Calm     33% 0.05in /  1.27mm meteobridge W/m2
09:04 44.2 °F /  6.8 °C 16.9 °F /  -8.4 °C 29.36in /  994.1hPa Calm     33% 0.05in /  1.27mm meteobridge W/m2
09:09 44.2 °F /  6.8 °C 16.9 °F /  -8.4 °C 29.36in /  994.1hPa Calm   1mph /  1.6km/h 33% 0.05in /  1.27mm meteobridge W/m2
09:14 44.1 °F /  6.7 °C 16.7 °F /  -8.5 °C 29.36in /  994.1hPa Calm   4mph /  6.4km/h 33% 0.05in /  1.27mm meteobridge W/m2
09:19 44.1 °F /  6.7 °C 16.7 °F /  -8.5 °C 29.37in /  994.5hPa Calm     33% 0.05in /  1.27mm meteobridge W/m2
09:24 44.1 °F /  6.7 °C 16.7 °F /  -8.5 °C 29.37in /  994.5hPa Calm     33% 0.06in /  1.52mm meteobridge W/m2
09:29 44.1 °F /  6.7 °C 16.7 °F /  -8.5 °C 29.37in /  994.5hPa Calm     33% 0.06in /  1.52mm meteobridge W/m2
09:34 44.1 °F /  6.7 °C 16.7 °F /  -8.5 °C 29.38in /  994.8hPa Calm   1mph /  1.6km/h 33% 0.06in /  1.52mm meteobridge W/m2
09:39 44.1 °F /  6.7 °C 16.7 °F /  -8.5 °C 29.38in /  994.8hPa Calm   3mph /  4.8km/h 33% 0.06in /  1.52mm meteobridge W/m2
09:44 43.9 °F /  6.6 °C 16.7 °F /  -8.5 °C 29.39in /  995.1hPa Calm     33% 0.05in /  1.27mm meteobridge W/m2
09:49 43.9 °F /  6.6 °C 16.7 °F /  -8.5 °C 29.39in /  995.1hPa Calm   4mph /  6.4km/h 33% 0.05in /  1.27mm meteobridge W/m2
09:54 43.9 °F /  6.6 °C 16.7 °F /  -8.5 °C 29.39in /  995.1hPa Calm     33% 0.04in /  1.02mm meteobridge W/m2
09:59 43.7 °F /  6.5 °C 16.5 °F /  -8.6 °C 29.39in /  995.1hPa West 0.9mph /  1.4km/h 2mph /  3.2km/h 33% 0.03in /  0.76mm meteobridge W/m2
10:04 43.5 °F /  6.4 °C 16.3 °F /  -8.7 °C 29.40in /  995.5hPa Calm   4mph /  6.4km/h 33% 0.02in /  0.51mm meteobridge W/m2
10:09 43.5 °F /  6.4 °C 16.3 °F /  -8.7 °C 29.40in /  995.5hPa North 2mph /  3.2km/h 4mph /  6.4km/h 33% 0.01in /  0.25mm meteobridge W/m2
10:14 43.5 °F /  6.4 °C 16.3 °F /  -8.7 °C 29.40in /  995.5hPa Calm   1mph /  1.6km/h 33% 0.01in /  0.25mm meteobridge W/m2
10:19 43.5 °F /  6.4 °C 16.3 °F /  -8.7 °C 29.41in /  995.8hPa Calm   5mph /  8km/h 33% 0.01in /  0.25mm meteobridge W/m2
10:24 43.3 °F /  6.3 °C 16.2 °F /  -8.8 °C 29.41in /  995.8hPa Calm   2mph /  3.2km/h 33% 0in /  0mm meteobridge W/m2
10:29 43.3 °F /  6.3 °C 16.2 °F /  -8.8 °C 29.42in /  996.2hPa Calm   3mph /  4.8km/h 33% 0in /  0mm meteobridge W/m2
10:34 43.3 °F /  6.3 °C 16.2 °F /  -8.8 °C 29.42in /  996.2hPa Calm   3mph /  4.8km/h 33% 0in /  0mm meteobridge W/m2
10:39 43.2 °F /  6.2 °C 16 °F /  -8.9 °C 29.43in /  996.5hPa Calm   5mph /  8km/h 33% 0in /  0mm meteobridge W/m2
10:44 43.3 °F /  6.3 °C 16.2 °F /  -8.8 °C 29.43in /  996.5hPa Calm     33% 0in /  0mm meteobridge W/m2
10:49 43.3 °F /  6.3 °C 16.2 °F /  -8.8 °C 29.43in /  996.5hPa Calm     33% 0in /  0mm meteobridge W/m2
10:54 43.3 °F /  6.3 °C 16.2 °F /  -8.8 °C 29.43in /  996.5hPa Calm   2mph /  3.2km/h 33% 0in /  0mm meteobridge W/m2
10:59 43.3 °F /  6.3 °C 16.2 °F /  -8.8 °C 29.44in /  996.8hPa Calm   3mph /  4.8km/h 33% 0in /  0mm meteobridge W/m2
11:04 43.5 °F /  6.4 °C 16.3 °F /  -8.7 °C 29.44in /  996.8hPa Calm   3mph /  4.8km/h 33% 0in /  0mm meteobridge W/m2
11:09 43.5 °F /  6.4 °C 16.3 °F /  -8.7 °C 29.44in /  996.8hPa Calm   9mph /  14.5km/h 33% 0in /  0mm meteobridge W/m2
11:14 43.5 °F /  6.4 °C 16.3 °F /  -8.7 °C 29.44in /  996.8hPa Calm   10mph /  16.1km/h 33% 0in /  0mm meteobridge W/m2
11:19 43.7 °F /  6.5 °C 16.5 °F /  -8.6 °C 29.44in /  996.8hPa Calm   10mph /  16.1km/h 33% 0in /  0mm meteobridge W/m2
11:24 43.9 °F /  6.6 °C 16.7 °F /  -8.5 °C 29.44in /  996.8hPa Calm   2mph /  3.2km/h 33% 0in /  0mm meteobridge W/m2
11:29 43.9 °F /  6.6 °C 16.7 °F /  -8.5 °C 29.44in /  996.8hPa Calm   3mph /  4.8km/h 33% 0in /  0mm meteobridge W/m2
11:34 43.9 °F /  6.6 °C 17.2 °F /  -8.2 °C 29.44in /  996.8hPa Calm   5mph /  8km/h 34% 0in /  0mm meteobridge W/m2
11:39 43.9 °F /  6.6 °C 17.2 °F /  -8.2 °C 29.45in /  997.2hPa Calm   5mph /  8km/h 34% 0in /  0mm meteobridge W/m2
11:44 43.9 °F /  6.6 °C 17.2 °F /  -8.2 °C 29.45in /  997.2hPa Calm     34% 0in /  0mm meteobridge W/m2
11:49 43.9 °F /  6.6 °C 17.2 °F /  -8.2 °C 29.45in /  997.2hPa Calm   6mph /  9.7km/h 34% 0in /  0mm meteobridge W/m2
11:54 43.5 °F /  6.4 °C 17.6 °F /  -8 °C 29.45in /  997.2hPa Calm   3mph /  4.8km/h 35% 0in /  0mm meteobridge W/m2
11:59 43.5 °F /  6.4 °C 17.6 °F /  -8 °C 29.46in /  997.5hPa Calm   4mph /  6.4km/h 35% 0in /  0mm meteobridge W/m2
12:04 43.3 °F /  6.3 °C 18.1 °F /  -7.7 °C 29.46in /  997.5hPa Calm   8mph /  12.9km/h 36% 0in /  0mm meteobridge W/m2
12:09 43.2 °F /  6.2 °C 18.7 °F /  -7.4 °C 29.46in /  997.5hPa WNW 2.9mph /  4.7km/h 7mph /  11.3km/h 37% 0in /  0mm meteobridge W/m2
12:14 43.2 °F /  6.2 °C 19.2 °F /  -7.1 °C 29.46in /  997.5hPa WSW 4mph /  6.4km/h 6mph /  9.7km/h 38% 0.01in /  0.25mm meteobridge W/m2
12:19 43 °F /  6.1 °C 19 °F /  -7.2 °C 29.46in /  997.5hPa Calm   2mph /  3.2km/h 38% 0.01in /  0.25mm meteobridge W/m2
12:24 42.8 °F /  6 °C 18.9 °F /  -7.3 °C 29.47in /  997.9hPa NNE 0.9mph /  1.4km/h 5mph /  8km/h 38% 0.01in /  0.25mm meteobridge W/m2
12:29 42.8 °F /  6 °C 18.9 °F /  -7.3 °C 29.47in /  997.9hPa East 4mph /  6.4km/h 4mph /  6.4km/h 38% 0.01in /  0.25mm meteobridge W/m2
12:34 42.6 °F /  5.9 °C 18.9 °F /  -7.3 °C 29.47in /  997.9hPa Calm   8mph /  12.9km/h 38% 0.01in /  0.25mm meteobridge W/m2
12:39 42.6 °F /  5.9 °C 18.9 °F /  -7.3 °C 29.47in /  997.9hPa Calm   3mph /  4.8km/h 38% 0.01in /  0.25mm meteobridge W/m2
12:44 42.6 °F /  5.9 °C 18.1 °F /  -7.7 °C 29.47in /  997.9hPa Calm     37% 0.02in /  0.51mm meteobridge W/m2
12:49 42.6 °F /  5.9 °C 18.1 °F /  -7.7 °C 29.47in /  997.9hPa Calm   5mph /  8km/h 37% 0.02in /  0.51mm meteobridge W/m2
12:54 42.6 °F /  5.9 °C 17.6 °F /  -8 °C 29.47in /  997.9hPa Calm   3mph /  4.8km/h 36% 0.02in /  0.51mm meteobridge W/m2
12:59 42.6 °F /  5.9 °C 17.6 °F /  -8 °C 29.48in /  998.2hPa Calm   10mph /  16.1km/h 36% 0.02in /  0.51mm meteobridge W/m2
13:04 42.6 °F /  5.9 °C 17.6 °F /  -8 °C 29.48in /  998.2hPa Calm   4mph /  6.4km/h 36% 0.02in /  0.51mm meteobridge W/m2
13:09 42.6 °F /  5.9 °C 17.6 °F /  -8 °C 29.48in /  998.2hPa Calm   3mph /  4.8km/h 36% 0.02in /  0.51mm meteobridge W/m2
13:14 42.8 °F /  6 °C 17.6 °F /  -8 °C 29.49in /  998.5hPa WNW 2mph /  3.2km/h 10mph /  16.1km/h 36% 0.01in /  0.25mm meteobridge W/m2
13:19 42.8 °F /  6 °C 17.6 °F /  -8 °C 29.49in /  998.5hPa Calm   5mph /  8km/h 36% 0.01in /  0.25mm meteobridge W/m2
13:24 42.6 °F /  5.9 °C 18.1 °F /  -7.7 °C 29.49in /  998.5hPa Calm   6mph /  9.7km/h 37% 0.01in /  0.25mm meteobridge W/m2
13:29 42.6 °F /  5.9 °C 18.1 °F /  -7.7 °C 29.49in /  998.5hPa Calm   2mph /  3.2km/h 37% 0.01in /  0.25mm meteobridge W/m2
13:34 42.6 °F /  5.9 °C 18.1 °F /  -7.7 °C 29.49in /  998.5hPa NW 2mph /  3.2km/h 5mph /  8km/h 37% 0.01in /  0.25mm meteobridge W/m2
13:39 42.8 °F /  6 °C 18.3 °F /  -7.6 °C 29.49in /  998.5hPa Calm   2mph /  3.2km/h 37% 0.01in /  0.25mm meteobridge W/m2
13:44 43 °F /  6.1 °C 18.5 °F /  -7.5 °C 29.49in /  998.5hPa Calm   5mph /  8km/h 37% 0in /  0mm meteobridge W/m2
13:49 42.8 °F /  6 °C 18.9 °F /  -7.3 °C 29.49in /  998.5hPa Calm   7mph /  11.3km/h 38% 0in /  0mm meteobridge W/m2
13:54 42.6 °F /  5.9 °C 18.9 °F /  -7.3 °C 29.50in /  998.9hPa Calm     38% 0in /  0mm meteobridge W/m2
13:59 42.4 °F /  5.8 °C 19.2 °F /  -7.1 °C 29.50in /  998.9hPa Calm     39% 0in /  0mm meteobridge W/m2
14:04 42.4 °F /  5.8 °C 19.2 °F /  -7.1 °C 29.50in /  998.9hPa Calm     39% 0in /  0mm meteobridge W/m2
14:09 42.4 °F /  5.8 °C 18.7 °F /  -7.4 °C 29.51in /  999.2hPa Calm     38% 0in /  0mm meteobridge W/m2
14:14 42.3 °F /  5.7 °C 18.5 °F /  -7.5 °C 29.51in /  999.2hPa Calm   2mph /  3.2km/h 38% 0in /  0mm meteobridge W/m2
14:19 42.1 °F /  5.6 °C 18.3 °F /  -7.6 °C 29.51in /  999.2hPa Calm   4mph /  6.4km/h 38% 0in /  0mm meteobridge W/m2
14:24 42.1 °F /  5.6 °C 18.3 °F /  -7.6 °C 29.52in /  999.5hPa WNW 0.9mph /  1.4km/h 1mph /  1.6km/h 38% 0.01in /  0.25mm meteobridge W/m2
14:29 42.1 °F /  5.6 °C 18.3 °F /  -7.6 °C 29.52in /  999.5hPa Calm   7mph /  11.3km/h 38% 0.01in /  0.25mm meteobridge W/m2
14:34 42.1 °F /  5.6 °C 17.6 °F /  -8 °C 29.52in /  999.5hPa WSW 2.9mph /  4.7km/h 4mph /  6.4km/h 37% 0.01in /  0.25mm meteobridge W/m2
14:39 41.9 °F /  5.5 °C 18.1 °F /  -7.7 °C 29.53in /  999.9hPa Calm     38% 0.01in /  0.25mm meteobridge W/m2
14:44 42.1 °F /  5.6 °C 17.6 °F /  -8 °C 29.53in /  999.9hPa Calm   2mph /  3.2km/h 37% 0.01in /  0.25mm meteobridge W/m2
14:49 42.1 °F /  5.6 °C 17.6 °F /  -8 °C 29.53in /  999.9hPa WNW 2.9mph /  4.7km/h 3mph /  4.8km/h 37% 0.01in /  0.25mm meteobridge W/m2
14:54 42.1 °F /  5.6 °C 17.6 °F /  -8 °C 29.54in /  1000.2hPa Calm     37% 0.01in /  0.25mm meteobridge W/m2
14:59 42.3 °F /  5.7 °C 17.8 °F /  -7.9 °C 29.54in /  1000.2hPa Calm   3mph /  4.8km/h 37% 0.01in /  0.25mm meteobridge W/m2
15:04 42.1 °F /  5.6 °C 17.6 °F /  -8 °C 29.54in /  1000.2hPa Calm   3mph /  4.8km/h 37% 0.01in /  0.25mm meteobridge W/m2
15:09 42.1 °F /  5.6 °C 18.3 °F /  -7.6 °C 29.54in /  1000.2hPa Calm   3mph /  4.8km/h 38% 0.01in /  0.25mm meteobridge W/m2
15:14 41.7 °F /  5.4 °C 18.5 °F /  -7.5 °C 29.55in /  1000.6hPa Calm   6mph /  9.7km/h 39% 0.01in /  0.25mm meteobridge W/m2
15:19 41.7 °F /  5.4 °C 18.5 °F /  -7.5 °C 29.55in /  1000.6hPa Calm   3mph /  4.8km/h 39% 0.01in /  0.25mm meteobridge W/m2
15:24 41.7 °F /  5.4 °C 18.5 °F /  -7.5 °C 29.56in /  1000.9hPa Calm   3mph /  4.8km/h 39% 0in /  0mm meteobridge W/m2
15:29 41.7 °F /  5.4 °C 18.5 °F /  -7.5 °C 29.56in /  1000.9hPa NW 0.9mph /  1.4km/h 3mph /  4.8km/h 39% 0in /  0mm meteobridge W/m2
15:34 41.5 °F /  5.3 °C 18.5 °F /  -7.5 °C 29.56in /  1000.9hPa NE 0.9mph /  1.4km/h 7mph /  11.3km/h 39% 0in /  0mm meteobridge W/m2
15:39 41.5 °F /  5.3 °C 19 °F /  -7.2 °C 29.57in /  1001.2hPa NNE 0.9mph /  1.4km/h 3mph /  4.8km/h 40% 0in /  0mm meteobridge W/m2
15:44 41.5 °F /  5.3 °C 19 °F /  -7.2 °C 29.57in /  1001.2hPa Calm   5mph /  8km/h 40% 0in /  0mm meteobridge W/m2
15:49 41.7 °F /  5.4 °C 19.8 °F /  -6.8 °C 29.57in /  1001.2hPa Calm   5mph /  8km/h 41% 0in /  0mm meteobridge W/m2
15:54 41.7 °F /  5.4 °C 19.8 °F /  -6.8 °C 29.58in /  1001.6hPa Calm   1mph /  1.6km/h 41% 0in /  0mm meteobridge W/m2
15:59 41.7 °F /  5.4 °C 19.8 °F /  -6.8 °C 29.58in /  1001.6hPa NNW 2mph /  3.2km/h 6mph /  9.7km/h 41% 0in /  0mm meteobridge W/m2
16:04 41.7 °F /  5.4 °C 20.3 °F /  -6.5 °C 29.59in /  1001.9hPa Calm   7mph /  11.3km/h 42% 0in /  0mm meteobridge W/m2
16:09 41.7 °F /  5.4 °C 20.3 °F /  -6.5 °C 29.59in /  1001.9hPa Calm   1mph /  1.6km/h 42% 0in /  0mm meteobridge W/m2
16:14 41.7 °F /  5.4 °C 19.8 °F /  -6.8 °C 29.59in /  1001.9hPa Calm   3mph /  4.8km/h 41% 0in /  0mm meteobridge W/m2
16:19 41.5 °F /  5.3 °C 19.6 °F /  -6.9 °C 29.60in /  1002.3hPa Calm   3mph /  4.8km/h 41% 0in /  0mm meteobridge W/m2
16:24 41.5 °F /  5.3 °C 19.6 °F /  -6.9 °C 29.61in /  1002.6hPa Calm   1mph /  1.6km/h 41% 0in /  0mm meteobridge W/m2
16:29 41.4 °F /  5.2 °C 19.4 °F /  -7 °C 29.61in /  1002.6hPa WNW 0.9mph /  1.4km/h 4mph /  6.4km/h 41% 0in /  0mm meteobridge W/m2
16:34 41.2 °F /  5.1 °C 19.2 °F /  -7.1 °C 29.61in /  1002.6hPa Calm   3mph /  4.8km/h 41% 0in /  0mm meteobridge W/m2
16:39 41.2 °F /  5.1 °C 19.2 °F /  -7.1 °C 29.62in /  1002.9hPa Calm     41% 0in /  0mm meteobridge W/m2
16:44 41 °F /  5 °C 19 °F /  -7.2 °C 29.62in /  1002.9hPa West 0.9mph /  1.4km/h 3mph /  4.8km/h 41% 0in /  0mm meteobridge W/m2
16:49 40.8 °F /  4.9 °C 18.3 °F /  -7.6 °C 29.63in /  1003.3hPa Calm   5mph /  8km/h 40% 0in /  0mm meteobridge W/m2
16:54 40.8 °F /  4.9 °C 18.9 °F /  -7.3 °C 29.63in /  1003.3hPa NW 0.9mph /  1.4km/h 2mph /  3.2km/h 41% 0in /  0mm meteobridge W/m2
16:59 40.6 °F /  4.8 °C 18.1 °F /  -7.7 °C 29.64in /  1003.6hPa Calm   1mph /  1.6km/h 40% 0in /  0mm meteobridge W/m2
17:04 40.6 °F /  4.8 °C 18.1 °F /  -7.7 °C 29.64in /  1003.6hPa Calm   7mph /  11.3km/h 40% 0in /  0mm meteobridge W/m2
17:09 40.6 °F /  4.8 °C 18.1 °F /  -7.7 °C 29.64in /  1003.6hPa Calm     40% 0in /  0mm meteobridge W/m2
17:14 40.5 °F /  4.7 °C 18 °F /  -7.8 °C 29.65in /  1003.9hPa Calm   2mph /  3.2km/h 40% 0.01in /  0.25mm meteobridge W/m2
17:19 40.5 °F /  4.7 °C 17.4 °F /  -8.1 °C 29.65in /  1003.9hPa Calm   2mph /  3.2km/h 39% 0.01in /  0.25mm meteobridge W/m2
17:24 40.5 °F /  4.7 °C 17.4 °F /  -8.1 °C 29.65in /  1003.9hPa Calm   2mph /  3.2km/h 39% 0.01in /  0.25mm meteobridge W/m2
17:28 40.3 °F /  4.6 °C 17.2 °F /  -8.2 °C 29.66in /  1004.3hPa WNW 4mph /  6.4km/h 15mph /  24.1km/h 39% 0.01in /  0.25mm meteobridge W/m2
17:34 40.1 °F /  4.5 °C 17.1 °F /  -8.3 °C 29.66in /  1004.3hPa North 0.9mph /  1.4km/h 1mph /  1.6km/h 39% 0.01in /  0.25mm meteobridge W/m2
17:39 40.1 °F /  4.5 °C 17.1 °F /  -8.3 °C 29.67in /  1004.6hPa Calm   1mph /  1.6km/h 39% 0.01in /  0.25mm meteobridge W/m2
17:44 40.1 °F /  4.5 °C 17.1 °F /  -8.3 °C 29.67in /  1004.6hPa WNW 2.9mph /  4.7km/h 3mph /  4.8km/h 39% 0.01in /  0.25mm meteobridge W/m2
17:49 39.9 °F /  4.4 °C 16.9 °F /  -8.4 °C 29.67in /  1004.6hPa West 2.9mph /  4.7km/h 5mph /  8km/h 39% 0.01in /  0.25mm meteobridge W/m2
17:54 39.9 °F /  4.4 °C 16.9 °F /  -8.4 °C 29.68in /  1005hPa Calm     39% 0.01in /  0.25mm meteobridge W/m2
17:59 39.9 °F /  4.4 °C 16.9 °F /  -8.4 °C 29.68in /  1005hPa Calm   4mph /  6.4km/h 39% 0.01in /  0.25mm meteobridge W/m2
18:04 39.9 °F /  4.4 °C 16.9 °F /  -8.4 °C 29.69in /  1005.3hPa Calm     39% 0.01in /  0.25mm meteobridge W/m2
18:09 39.9 °F /  4.4 °C 16.9 °F /  -8.4 °C 29.69in /  1005.3hPa NNE 0.9mph /  1.4km/h 3mph /  4.8km/h 39% 0.01in /  0.25mm meteobridge W/m2
18:14 39.7 °F /  4.3 °C 16.9 °F /  -8.4 °C 29.70in /  1005.6hPa Calm     39% 0in /  0mm meteobridge W/m2
18:19 39.9 °F /  4.4 °C 16.9 °F /  -8.4 °C 29.70in /  1005.6hPa Calm   1mph /  1.6km/h 39% 0in /  0mm meteobridge W/m2
18:24 39.7 °F /  4.3 °C 16.2 °F /  -8.8 °C 29.70in /  1005.6hPa WNW 0.9mph /  1.4km/h 3mph /  4.8km/h 38% 0in /  0mm meteobridge W/m2
18:29 39.7 °F /  4.3 °C 16.9 °F /  -8.4 °C 29.71in /  1006hPa Calm   10mph /  16.1km/h 39% 0in /  0mm meteobridge W/m2
18:34 39.6 °F /  4.2 °C 16 °F /  -8.9 °C 29.71in /  1006hPa Calm   1mph /  1.6km/h 38% 0.01in /  0.25mm meteobridge W/m2
18:39 39.6 °F /  4.2 °C 16.7 °F /  -8.5 °C 29.72in /  1006.3hPa NW 0.9mph /  1.4km/h 4mph /  6.4km/h 39% 0.01in /  0.25mm meteobridge W/m2
18:44 39.6 °F /  4.2 °C 16.7 °F /  -8.5 °C 29.72in /  1006.3hPa Calm   3mph /  4.8km/h 39% 0.01in /  0.25mm meteobridge W/m2
18:49 39.4 °F /  4.1 °C 16.5 °F /  -8.6 °C 29.72in /  1006.3hPa Calm   2mph /  3.2km/h 39% 0.01in /  0.25mm meteobridge W/m2
18:54 39.4 °F /  4.1 °C 16.5 °F /  -8.6 °C 29.73in /  1006.7hPa Calm   2mph /  3.2km/h 39% 0.01in /  0.25mm meteobridge W/m2
18:59 39.2 °F /  4 °C 16.3 °F /  -8.7 °C 29.73in /  1006.7hPa WSW 0.9mph /  1.4km/h 4mph /  6.4km/h 39% 0.01in /  0.25mm meteobridge W/m2
19:04 39.2 °F /  4 °C 16.3 °F /  -8.7 °C 29.73in /  1006.7hPa Calm   3mph /  4.8km/h 39% 0.02in /  0.51mm meteobridge W/m2
19:09 39.2 °F /  4 °C 15.8 °F /  -9 °C 29.73in /  1006.7hPa Calm     38% 0.02in /  0.51mm meteobridge W/m2
19:14 39 °F /  3.9 °C 15.6 °F /  -9.1 °C 29.74in /  1007hPa Calm   5mph /  8km/h 38% 0.02in /  0.51mm meteobridge W/m2
19:19 39 °F /  3.9 °C 15.6 °F /  -9.1 °C 29.74in /  1007hPa NNW 2mph /  3.2km/h 2mph /  3.2km/h 38% 0.02in /  0.51mm meteobridge W/m2
19:24 38.8 °F /  3.8 °C 15.4 °F /  -9.2 °C 29.74in /  1007hPa Calm   3mph /  4.8km/h 38% 0.02in /  0.51mm meteobridge W/m2
19:29 38.8 °F /  3.8 °C 15.4 °F /  -9.2 °C 29.75in /  1007.3hPa Calm   3mph /  4.8km/h 38% 0.02in /  0.51mm meteobridge W/m2
19:34 38.8 °F /  3.8 °C 15.4 °F /  -9.2 °C 29.75in /  1007.3hPa Calm   3mph /  4.8km/h 38% 0.01in /  0.25mm meteobridge W/m2
19:39 38.7 °F /  3.7 °C 15.3 °F /  -9.3 °C 29.75in /  1007.3hPa NW 0.9mph /  1.4km/h 4mph /  6.4km/h 38% 0.01in /  0.25mm meteobridge W/m2
19:44 38.7 °F /  3.7 °C 15.3 °F /  -9.3 °C 29.76in /  1007.7hPa Calm   1mph /  1.6km/h 38% 0.01in /  0.25mm meteobridge W/m2
19:49 38.7 °F /  3.7 °C 15.3 °F /  -9.3 °C 29.77in /  1008hPa Calm     38% 0.01in /  0.25mm meteobridge W/m2
19:54 38.7 °F /  3.7 °C 15.3 °F /  -9.3 °C 29.77in /  1008hPa Calm     38% 0.01in /  0.25mm meteobridge W/m2
19:59 38.7 °F /  3.7 °C 15.3 °F /  -9.3 °C 29.77in /  1008hPa NNW 0.9mph /  1.4km/h 2mph /  3.2km/h 38% 0.01in /  0.25mm meteobridge W/m2
20:04 38.7 °F /  3.7 °C 15.3 °F /  -9.3 °C 29.77in /  1008hPa Calm   6mph /  9.7km/h 38% 0in /  0mm meteobridge W/m2
20:09 38.5 °F /  3.6 °C 15.1 °F /  -9.4 °C 29.78in /  1008.4hPa Calm     38% 0in /  0mm meteobridge W/m2
20:14 38.5 °F /  3.6 °C 15.1 °F /  -9.4 °C 29.78in /  1008.4hPa Calm     38% 0in /  0mm meteobridge W/m2
20:19 38.5 °F /  3.6 °C 15.1 °F /  -9.4 °C 29.78in /  1008.4hPa Calm   1mph /  1.6km/h 38% 0in /  0mm meteobridge W/m2
20:24 38.7 °F /  3.7 °C 15.3 °F /  -9.3 °C 29.78in /  1008.4hPa NNW 0.9mph /  1.4km/h 1mph /  1.6km/h 38% 0in /  0mm meteobridge W/m2
20:29 38.5 °F /  3.6 °C 15.1 °F /  -9.4 °C 29.79in /  1008.7hPa Calm     38% 0in /  0mm meteobridge W/m2
20:34 38.5 °F /  3.6 °C 15.1 °F /  -9.4 °C 29.79in /  1008.7hPa Calm     38% 0in /  0mm meteobridge W/m2
20:39 38.5 °F /  3.6 °C 15.1 °F /  -9.4 °C 29.79in /  1008.7hPa Calm   1mph /  1.6km/h 38% 0in /  0mm meteobridge W/m2
20:44 38.5 °F /  3.6 °C 15.1 °F /  -9.4 °C 29.79in /  1008.7hPa SSW 0.9mph /  1.4km/h 3mph /  4.8km/h 38% 0in /  0mm meteobridge W/m2
20:49 38.5 °F /  3.6 °C 15.1 °F /  -9.4 °C 29.80in /  1009hPa Calm   1mph /  1.6km/h 38% 0in /  0mm meteobridge W/m2
20:54 38.5 °F /  3.6 °C 15.1 °F /  -9.4 °C 29.80in /  1009hPa Calm     38% 0in /  0mm meteobridge W/m2
20:59 38.5 °F /  3.6 °C 15.1 °F /  -9.4 °C 29.80in /  1009hPa WNW 2.9mph /  4.7km/h 6mph /  9.7km/h 38% 0in /  0mm meteobridge W/m2
21:04 38.5 °F /  3.6 °C 15.6 °F /  -9.1 °C 29.81in /  1009.4hPa Calm     39% 0in /  0mm meteobridge W/m2
21:09 38.5 °F /  3.6 °C 15.6 °F /  -9.1 °C 29.81in /  1009.4hPa Calm     39% 0in /  0mm meteobridge W/m2
21:14 38.5 °F /  3.6 °C 15.6 °F /  -9.1 °C 29.82in /  1009.7hPa Calm     39% 0in /  0mm meteobridge W/m2
21:19 38.5 °F /  3.6 °C 15.6 °F /  -9.1 °C 29.82in /  1009.7hPa Calm     39% 0in /  0mm meteobridge W/m2
21:24 38.5 °F /  3.6 °C 15.6 °F /  -9.1 °C 29.82in /  1009.7hPa Calm     39% 0in /  0mm meteobridge W/m2
21:29 38.5 °F /  3.6 °C 15.6 °F /  -9.1 °C 29.82in /  1009.7hPa Calm     39% 0in /  0mm meteobridge W/m2
21:34 38.5 °F /  3.6 °C 15.6 °F /  -9.1 °C 29.83in /  1010hPa Calm   1mph /  1.6km/h 39% 0in /  0mm meteobridge W/m2
21:39 38.5 °F /  3.6 °C 15.6 °F /  -9.1 °C 29.83in /  1010hPa Calm   2mph /  3.2km/h 39% 0in /  0mm meteobridge W/m2
21:44 38.3 °F /  3.5 °C 15.4 °F /  -9.2 °C 29.83in /  1010hPa Calm   7mph /  11.3km/h 39% 0in /  0mm meteobridge W/m2
21:49 38.3 °F /  3.5 °C 15.4 °F /  -9.2 °C 29.83in /  1010hPa Calm   1mph /  1.6km/h 39% 0in /  0mm meteobridge W/m2
21:54 38.1 °F /  3.4 °C 16 °F /  -8.9 °C 29.83in /  1010hPa Calm     40% 0in /  0mm meteobridge W/m2
21:59 38.3 °F /  3.5 °C 16.2 °F /  -8.8 °C 29.83in /  1010hPa Calm   4mph /  6.4km/h 40% 0in /  0mm meteobridge W/m2
22:04 38.1 °F /  3.4 °C 16 °F /  -8.9 °C 29.84in /  1010.4hPa Calm     40% 0in /  0mm meteobridge W/m2
22:09 38.1 °F /  3.4 °C 16 °F /  -8.9 °C 29.84in /  1010.4hPa Calm   3mph /  4.8km/h 40% 0in /  0mm meteobridge W/m2
22:14 38.1 °F /  3.4 °C 16 °F /  -8.9 °C 29.85in /  1010.7hPa Calm     40% 0in /  0mm meteobridge W/m2
22:19 38.1 °F /  3.4 °C 16 °F /  -8.9 °C 29.86in /  1011.1hPa Calm   5mph /  8km/h 40% 0in /  0mm meteobridge W/m2
22:24 38.1 °F /  3.4 °C 16 °F /  -8.9 °C 29.87in /  1011.4hPa WNW 0.9mph /  1.4km/h 2mph /  3.2km/h 40% 0in /  0mm meteobridge W/m2
22:29 38.1 °F /  3.4 °C 16.5 °F /  -8.6 °C 29.87in /  1011.4hPa Calm   1mph /  1.6km/h 41% 0in /  0mm meteobridge W/m2
22:34 38.1 °F /  3.4 °C 16.5 °F /  -8.6 °C 29.87in /  1011.4hPa Calm   1mph /  1.6km/h 41% 0in /  0mm meteobridge W/m2
22:39 37.9 °F /  3.3 °C 16.3 °F /  -8.7 °C 29.87in /  1011.4hPa Calm   5mph /  8km/h 41% 0in /  0mm meteobridge W/m2
22:44 37.9 °F /  3.3 °C 16.9 °F /  -8.4 °C 29.87in /  1011.4hPa NW 2.9mph /  4.7km/h 5mph /  8km/h 42% 0in /  0mm meteobridge W/m2
22:49 37.9 °F /  3.3 °C 16.9 °F /  -8.4 °C 29.88in /  1011.7hPa Calm   1mph /  1.6km/h 42% 0in /  0mm meteobridge W/m2
22:54 37.9 °F /  3.3 °C 16.9 °F /  -8.4 °C 29.88in /  1011.7hPa Calm   6mph /  9.7km/h 42% 0in /  0mm meteobridge W/m2
22:59 37.9 °F /  3.3 °C 16.3 °F /  -8.7 °C 29.89in /  1012.1hPa NE 2mph /  3.2km/h 3mph /  4.8km/h 41% 0in /  0mm meteobridge W/m2
23:04 37.9 °F /  3.3 °C 16.9 °F /  -8.4 °C 29.89in /  1012.1hPa Calm   1mph /  1.6km/h 42% 0in /  0mm meteobridge W/m2
23:09 37.9 °F /  3.3 °C 16.9 °F /  -8.4 °C 29.88in /  1011.7hPa Calm     42% 0in /  0mm meteobridge W/m2
23:14 37.9 °F /  3.3 °C 16.9 °F /  -8.4 °C 29.89in /  1012.1hPa Calm   5mph /  8km/h 42% 0in /  0mm meteobridge W/m2
23:19 37.9 °F /  3.3 °C 16.9 °F /  -8.4 °C 29.89in /  1012.1hPa NW 2.9mph /  4.7km/h 6mph /  9.7km/h 42% 0in /  0mm meteobridge W/m2
23:24 37.8 °F /  3.2 °C 16.7 °F /  -8.5 °C 29.89in /  1012.1hPa Calm     42% 0in /  0mm meteobridge W/m2
23:29 37.8 °F /  3.2 °C 16.2 °F /  -8.8 °C 29.89in /  1012.1hPa Calm     41% 0in /  0mm meteobridge W/m2
23:34 37.8 °F /  3.2 °C 16.2 °F /  -8.8 °C 29.90in /  1012.4hPa Calm     41% 0in /  0mm meteobridge W/m2
23:39 37.8 °F /  3.2 °C 16.2 °F /  -8.8 °C 29.90in /  1012.4hPa Calm     41% 0in /  0mm meteobridge W/m2
23:44 37.8 °F /  3.2 °C 15.6 °F /  -9.1 °C 29.90in /  1012.4hPa Calm     40% 0in /  0mm meteobridge W/m2
23:49 37.8 °F /  3.2 °C 15.6 °F /  -9.1 °C 29.90in /  1012.4hPa Calm     40% 0in /  0mm meteobridge W/m2
23:54 37.6 °F /  3.1 °C 15.4 °F /  -9.2 °C 29.90in /  1012.4hPa Calm     40% 0in /  0mm meteobridge W/m2
23:59 37.6 °F /  3.1 °C 15.4 °F /  -9.2 °C 29.90in /  1012.4hPa NW 2mph /  3.2km/h 2mph /  3.2km/h 40% 0in /  0mm meteobridge W/m2
EllijayWeather
Compliments of Weather Underground - 2.5 mb